createdAt,value
2023-02-04T00:03:03.368Z,11.93
2023-02-04T00:08:08.523Z,10.45
2023-02-04T00:13:13.370Z,11.77
2023-02-04T00:18:29.388Z,9.52
2023-02-04T00:23:35.648Z,11.50
2023-02-04T00:28:46.736Z,13.07
2023-02-04T00:33:50.701Z,8.05
2023-02-04T00:39:01.333Z,13.05
2023-02-04T00:44:08.038Z,11.90
2023-02-04T00:49:12.633Z,9.40
2023-02-04T00:54:20.825Z,12.15
2023-02-04T00:59:25.955Z,10.23
2023-02-04T01:04:33.056Z,9.60
2023-02-04T01:09:34.532Z,7.78
2023-02-04T01:14:36.100Z,11.30
2023-02-04T01:19:45.000Z,6.97
2023-02-04T01:24:47.761Z,7.68
2023-02-04T01:30:12.391Z,10.25
2023-02-04T01:35:26.382Z,11.10
2023-02-04T01:40:28.184Z,12.13
2023-02-04T01:45:52.319Z,8.98
2023-02-04T01:51:06.737Z,6.57
2023-02-04T01:56:23.221Z,11.52
2023-02-04T02:01:38.168Z,6.93
2023-02-04T02:06:44.060Z,16.35
2023-02-04T02:11:48.174Z,8.90
2023-02-04T02:16:57.877Z,7.43
2023-02-04T02:22:25.927Z,7.95
2023-02-04T02:32:38.096Z,8.35
2023-02-04T02:37:39.679Z,9.18
2023-02-04T02:42:43.793Z,11.35
2023-02-04T02:47:51.507Z,6.13
2023-02-04T02:52:56.816Z,11.98
2023-02-04T02:58:03.004Z,8.65
2023-02-04T03:03:14.916Z,11.20
2023-02-04T03:08:25.318Z,9.70
2023-02-04T03:13:36.943Z,10.00
2023-02-04T03:18:42.283Z,9.50
2023-02-04T03:23:46.432Z,10.77
2023-02-04T03:28:52.534Z,7.82
2023-02-04T03:33:57.870Z,11.00
2023-02-04T03:38:59.411Z,11.82
2023-02-04T03:44:08.920Z,10.35
2023-02-04T03:49:11.574Z,11.75
2023-02-04T03:54:13.519Z,10.15
2023-02-04T03:59:20.072Z,10.73
2023-02-04T04:04:21.708Z,11.10
2023-02-04T04:09:26.525Z,10.52
2023-02-04T04:14:35.258Z,9.00
2023-02-04T04:19:38.855Z,11.93
2023-02-04T04:24:42.681Z,10.20
2023-02-04T04:29:45.386Z,9.30
2023-02-04T04:34:46.895Z,10.52
2023-02-04T04:39:50.634Z,13.07
2023-02-04T04:44:57.019Z,9.35
2023-02-04T04:50:05.087Z,9.88
2023-02-04T04:55:08.391Z,9.68
2023-02-04T05:00:17.010Z,7.55
2023-02-04T05:05:22.326Z,10.32
2023-02-04T05:10:25.062Z,9.55
2023-02-04T05:15:41.586Z,10.23
2023-02-04T05:20:44.319Z,7.85
2023-02-04T05:25:53.101Z,14.45
2023-02-04T05:30:59.538Z,8.55
2023-02-04T05:36:01.156Z,10.07
2023-02-04T05:41:02.692Z,4.93
2023-02-04T05:46:15.559Z,8.45
2023-02-04T05:51:18.370Z,6.82
2023-02-04T05:56:25.996Z,3.72
2023-02-04T06:01:29.853Z,0.60
2023-02-04T06:06:31.599Z,6.85
2023-02-04T06:11:38.583Z,1.42
2023-02-04T06:16:51.403Z,5.28
2023-02-04T06:21:58.393Z,2.60
2023-02-04T06:27:02.722Z,4.25
2023-02-04T06:32:11.845Z,1.95
2023-02-04T06:37:18.620Z,1.52
2023-02-04T06:42:25.577Z,2.45
2023-02-04T06:47:31.893Z,0.60
2023-02-04T06:52:43.334Z,6.78
2023-02-04T06:57:54.007Z,2.03
2023-02-04T07:02:56.770Z,1.10
2023-02-04T07:08:05.611Z,4.55
2023-02-04T07:13:09.630Z,1.58
2023-02-04T07:18:19.070Z,3.60
2023-02-04T07:23:26.422Z,2.60
2023-02-04T07:28:33.271Z,1.05
2023-02-04T07:33:39.919Z,1.80
2023-02-04T07:38:41.468Z,1.15
2023-02-04T07:43:46.017Z,1.25
2023-02-04T07:49:10.341Z,1.15
2023-02-04T07:54:11.843Z,1.47
2023-02-04T07:59:17.961Z,1.88
2023-02-04T08:04:32.095Z,0.73
2023-02-04T08:09:33.624Z,1.10
2023-02-04T08:14:37.682Z,1.38
2023-02-04T08:19:42.618Z,1.10
2023-02-04T08:24:51.971Z,0.98
2023-02-04T08:29:59.408Z,1.42
2023-02-04T08:35:07.255Z,0.90
2023-02-04T08:40:20.353Z,1.02
2023-02-04T08:45:25.071Z,2.75
2023-02-04T08:50:31.071Z,1.70
2023-02-04T08:55:37.066Z,1.48
2023-02-04T09:00:41.219Z,0.98
2023-02-04T09:05:45.276Z,0.55
2023-02-04T09:10:46.841Z,0.50
2023-02-04T09:15:48.555Z,0.50
2023-02-04T09:20:52.403Z,0.35
2023-02-04T09:25:58.715Z,0.40
2023-02-04T09:31:07.512Z,0.57
2023-02-04T09:36:09.977Z,0.50
2023-02-04T09:41:15.040Z,1.08
2023-02-04T09:46:24.772Z,0.80
2023-02-04T09:51:34.476Z,0.40
2023-02-04T09:56:38.762Z,0.50
2023-02-04T10:01:42.845Z,0.47
2023-02-04T10:06:45.963Z,1.20
2023-02-04T10:11:51.664Z,0.40
2023-02-04T10:17:10.094Z,0.75
2023-02-04T10:22:23.611Z,0.30
2023-02-04T10:27:35.034Z,0.40
2023-02-04T10:32:40.126Z,0.43
2023-02-04T10:37:41.768Z,0.82
2023-02-04T10:42:51.438Z,1.13
2023-02-04T10:47:56.760Z,0.57
2023-02-04T10:53:22.492Z,0.57
2023-02-04T10:58:32.498Z,0.35
2023-02-04T11:03:38.646Z,0.50
2023-02-04T11:08:45.607Z,0.38
2023-02-04T11:13:50.063Z,1.33
2023-02-04T11:19:06.416Z,1.40
2023-02-04T11:24:13.801Z,0.40
2023-02-04T11:29:15.333Z,1.58
2023-02-04T11:34:25.873Z,0.75
2023-02-04T11:39:36.947Z,0.73
2023-02-04T11:44:39.854Z,0.80
2023-02-04T11:49:43.071Z,0.40
2023-02-04T11:54:57.308Z,0.40
2023-02-04T12:00:03.630Z,0.55
2023-02-04T12:05:15.657Z,0.77
2023-02-04T12:10:33.545Z,0.40
2023-02-04T12:15:36.556Z,0.40
2023-02-04T12:20:40.697Z,0.40
2023-02-04T12:25:44.123Z,0.65
2023-02-04T12:30:50.864Z,0.20
2023-02-04T12:35:54.832Z,0.75
2023-02-04T12:40:56.338Z,0.50
2023-02-04T12:46:10.654Z,0.47
2023-02-04T12:51:20.047Z,0.60
2023-02-04T12:56:24.203Z,0.40
2023-02-04T13:01:28.708Z,0.52
2023-02-04T13:06:35.688Z,0.30
2023-02-04T13:11:37.342Z,0.45
2023-02-04T13:16:53.847Z,0.30
2023-02-04T13:21:58.656Z,0.82
2023-02-04T13:27:02.518Z,0.30
2023-02-04T13:32:12.440Z,1.10
2023-02-04T13:37:13.988Z,0.20
2023-02-04T13:42:20.610Z,0.43
2023-02-04T13:47:24.599Z,0.40
2023-02-04T13:52:28.565Z,0.47
2023-02-04T13:57:35.118Z,0.35
2023-02-04T14:02:44.030Z,0.40
2023-02-04T14:07:45.655Z,1.58
2023-02-04T14:12:47.160Z,1.10
2023-02-04T14:17:51.413Z,0.70
2023-02-04T14:22:59.739Z,0.40
2023-02-04T14:33:05.829Z,0.40
2023-02-04T14:38:09.665Z,0.30
2023-02-04T14:43:11.300Z,0.40
2023-02-04T14:48:19.658Z,0.40
2023-02-04T14:58:33.204Z,0.43
2023-02-04T15:03:37.146Z,0.40
2023-02-04T15:08:42.763Z,1.15
2023-02-04T15:13:44.304Z,0.30
2023-02-04T15:18:48.822Z,0.77
2023-02-04T15:23:54.286Z,1.38
2023-02-04T15:29:03.196Z,0.60
2023-02-04T15:34:07.900Z,0.50
2023-02-04T15:39:15.004Z,0.80
2023-02-04T15:44:17.630Z,0.50
2023-02-04T15:49:28.025Z,1.05
2023-02-04T15:54:39.641Z,0.80
2023-02-04T15:59:44.516Z,0.57
2023-02-04T16:04:48.521Z,0.80
2023-02-04T16:09:58.484Z,0.52
2023-02-04T16:15:07.968Z,0.85
2023-02-04T16:20:13.536Z,0.80
2023-02-04T16:25:21.281Z,1.00
2023-02-04T16:30:27.188Z,0.70
2023-02-04T16:35:28.865Z,2.55
2023-02-04T16:40:41.537Z,0.65
2023-02-04T16:45:50.833Z,1.25
2023-02-04T16:51:00.153Z,0.82
2023-02-04T16:56:03.923Z,0.60
2023-02-04T17:01:11.329Z,0.65
2023-02-04T17:06:16.390Z,0.80
2023-02-04T17:11:29.426Z,0.93
2023-02-04T17:16:31.648Z,1.65
2023-02-04T17:21:42.738Z,0.60
2023-02-04T17:26:46.633Z,1.75
2023-02-04T17:31:55.124Z,0.73
2023-02-04T17:36:59.124Z,0.60
2023-02-04T17:42:00.704Z,1.10
2023-02-04T17:52:36.615Z,0.77
2023-02-04T17:57:41.746Z,0.85
2023-02-04T18:02:47.043Z,1.05
2023-02-04T18:08:20.114Z,0.55
2023-02-04T18:13:36.640Z,0.80
2023-02-04T18:18:43.013Z,2.63
2023-02-04T18:23:49.715Z,0.70
2023-02-04T18:29:01.593Z,1.80
2023-02-04T18:34:24.166Z,4.25
2023-02-04T18:39:28.852Z,1.02
2023-02-04T18:44:43.849Z,3.83
2023-02-04T18:49:48.197Z,1.02
2023-02-04T18:54:54.205Z,2.92
2023-02-04T19:00:24.904Z,1.00
2023-02-04T19:05:52.368Z,1.08
2023-02-04T19:10:56.612Z,10.68
2023-02-04T19:16:17.662Z,1.90
2023-02-04T19:21:32.248Z,0.90
2023-02-04T19:27:00.512Z,1.13
2023-02-04T19:32:23.012Z,1.00
2023-02-04T19:37:38.928Z,1.70
2023-02-04T19:47:51.839Z,0.90
2023-02-04T19:53:02.158Z,0.83
2023-02-04T19:58:19.121Z,1.90
2023-02-04T20:03:37.320Z,1.45
2023-02-04T20:08:53.913Z,1.38
2023-02-04T20:14:01.620Z,1.67
2023-02-04T20:19:35.493Z,2.53
2023-02-04T20:24:43.110Z,1.92
2023-02-04T20:29:46.930Z,2.22
2023-02-04T20:34:50.694Z,2.88
2023-02-04T20:39:55.065Z,2.10
2023-02-04T20:45:13.826Z,1.90
2023-02-04T20:50:38.295Z,3.00
2023-02-04T20:56:03.787Z,1.75
2023-02-04T21:01:37.545Z,0.80
2023-02-04T21:06:39.206Z,1.08
2023-02-04T21:11:43.518Z,1.52
2023-02-04T21:16:58.627Z,2.97
2023-02-04T21:22:04.962Z,2.45
2023-02-04T21:27:11.348Z,5.45
2023-02-04T21:32:20.139Z,3.95
2023-02-04T21:37:24.138Z,2.40
2023-02-04T21:42:37.337Z,4.22
2023-02-04T21:47:41.017Z,3.17
2023-02-04T21:52:48.828Z,2.88
2023-02-04T21:57:57.729Z,1.73
2023-02-04T22:02:59.567Z,1.02
2023-02-04T22:08:06.306Z,1.33
2023-02-04T22:13:30.088Z,0.90
2023-02-04T22:18:36.571Z,2.05
2023-02-04T22:23:40.732Z,2.63
2023-02-04T22:28:49.965Z,3.28
2023-02-04T22:33:57.494Z,6.40
2023-02-04T22:39:06.857Z,7.78
2023-02-04T22:44:08.686Z,10.50
2023-02-04T22:49:14.483Z,8.45
2023-02-04T22:54:16.130Z,3.63
2023-02-04T22:59:19.867Z,1.63
2023-02-04T23:04:21.827Z,2.75
2023-02-04T23:09:34.360Z,6.25
2023-02-04T23:14:38.233Z,5.22
2023-02-04T23:19:42.647Z,8.05
2023-02-04T23:24:47.410Z,8.73
2023-02-04T23:29:51.501Z,6.50
2023-02-04T23:34:59.187Z,7.07
2023-02-04T23:40:09.505Z,4.47
2023-02-04T23:45:16.505Z,3.92
2023-02-04T23:50:18.241Z,2.80
2023-02-04T23:55:19.876Z,6.97
